Terminal Aerodrome Forecast
Issued by NWS Binghamton, NY

Home | Current Version | Previous Version | Text Only | Print | Product List | Glossary On
Versions: 1 2 3 4 5 6 7 8 9 10 11 12 13 14 15
989
FTUS41 KBGM 310526
TAFBGM
TAF
KBGM 310526Z 3106/0106 28004KT P6SM SKC
     FM311400 30007KT P6SM FEW250
     FM311900 32011KT P6SM FEW250
     FM010000 35006KT P6SM FEW250=

USA.gov is the U.S. government's official web portal to all federal, state and local government web resources and services.